Ashland, ME (04737)

3:05 PM EDT on July 24, 2016 (GMT -0400)
Northern Maine Regional At Presque Isle | | Change Station

Elev 479 ft 46.69 °N, 68.04 °W | Updated 9 minutes ago

Scattered Clouds
Scattered Clouds
79 °F
Feels Like 79 °F
N
7
Wind Variable Wind from North

Today
High -- | Low -- °F
--% Chance of Precip.
Yesterday
High -- | Low -- °F
Precip. -- in
Pressure 29.99 in
Visibility 10.0 miles
Clouds Scattered Clouds 5500 ft
Dew Point 60 °F
Humidity 52%
Rainfall 0.00 in
Snow Depth Not available.
5:09 AM 8:18 PM
Waning Gibbous, 74% visible
METAR KPQI 241856Z AUTO 36006KT 10SM SCT055 26/16 A2989 RMK AO2 SLP156 T02610156
Pressure 29.99 in
Visibility 10.0 miles
Clouds Scattered Clouds 5500 ft
Dew Point 60 °F
Humidity 52%
Rainfall 0.00 in
Snow Depth Not available.
5:09 AM 8:18 PM
Waning Gibbous, 74% visible
METAR KPQI 241856Z AUTO 36006KT 10SM SCT055 26/16 A2989 RMK AO2 SLP156 T02610156

10-Day Weather Forecast

Almanac

Astronomy

Jul. 24, 2016 Rise Set
Actual Time
Civil Twilight
Nautical Twilight
Astronomical Twilight
Moon
Length of Visible Light
Length of Day
Tomorrow will be .
, % of the Moon is Illuminated

Today's Extremes

State Highs State Lows

Community

WunderPhotos

Upload Photos

1,927,163 photos uploaded!

WunderBlog® & News

Nearby

Air Quality

  Air Quality AQ Index Pollutant
Not available.

Snow Depth

Station Depth Elevation

Earthquake Activity

City Distance Mag. Time & Date
Minimum magnitude displayed is 2.5.

Coastal Water Temperatures

Place Temperature

Stations

Nearby Weather Stations

Station Location Temp. Windchill Dew Point Humidity Wind Precip. Elev Updated Type
                   

Watches & Warnings

There are currently no watches in effect.